sensor_id;sensor_type;location;lat;lon;timestamp;temperature;humidity
23550;DHT22;11953;49.010;8.608;2022-10-14T00:01:34;14.80;99.90
23550;DHT22;11953;49.010;8.608;2022-10-14T00:04:20;14.70;99.90
23550;DHT22;11953;49.010;8.608;2022-10-14T00:07:07;14.70;99.90
23550;DHT22;11953;49.010;8.608;2022-10-14T00:09:53;14.70;99.90
23550;DHT22;11953;49.010;8.608;2022-10-14T00:12:40;14.70;99.90
23550;DHT22;11953;49.010;8.608;2022-10-14T00:15:26;14.70;99.90
23550;DHT22;11953;49.010;8.608;2022-10-14T00:18:14;14.70;99.90
23550;DHT22;11953;49.010;8.608;2022-10-14T00:21:02;14.80;99.90
23550;DHT22;11953;49.010;8.608;2022-10-14T00:23:53;14.70;99.90
23550;DHT22;11953;49.010;8.608;2022-10-14T00:26:41;14.60;99.90
23550;DHT22;11953;49.010;8.608;2022-10-14T00:29:28;14.60;99.90
23550;DHT22;11953;49.010;8.608;2022-10-14T00:32:15;14.60;99.90
23550;DHT22;11953;49.010;8.608;2022-10-14T00:35:03;14.70;99.90
23550;DHT22;11953;49.010;8.608;2022-10-14T00:37:50;14.70;99.90
23550;DHT22;11953;49.010;8.608;2022-10-14T00:40:36;14.70;99.90
23550;DHT22;11953;49.010;8.608;2022-10-14T00:43:24;14.70;99.90
23550;DHT22;11953;49.010;8.608;2022-10-14T00:46:11;14.70;99.90
23550;DHT22;11953;49.010;8.608;2022-10-14T00:48:59;14.70;99.90
23550;DHT22;11953;49.010;8.608;2022-10-14T00:51:51;14.70;99.90
23550;DHT22;11953;49.010;8.608;2022-10-14T00:54:43;14.60;99.90
23550;DHT22;11953;49.010;8.608;2022-10-14T00:57:30;14.70;99.90
23550;DHT22;11953;49.010;8.608;2022-10-14T01:00:18;14.60;99.90
23550;DHT22;11953;49.010;8.608;2022-10-14T01:03:07;14.60;99.90
23550;DHT22;11953;49.010;8.608;2022-10-14T01:05:59;14.60;99.90
23550;DHT22;11953;49.010;8.608;2022-10-14T01:08:55;14.70;99.90
23550;DHT22;11953;49.010;8.608;2022-10-14T01:11:50;14.70;99.90
23550;DHT22;11953;49.010;8.608;2022-10-14T01:15:09;14.70;99.90
23550;DHT22;11953;49.010;8.608;2022-10-14T01:18:14;14.70;99.90
23550;DHT22;11953;49.010;8.608;2022-10-14T01:21:11;14.70;99.90
23550;DHT22;11953;49.010;8.608;2022-10-14T01:24:27;14.60;99.90
23550;DHT22;11953;49.010;8.608;2022-10-14T01:27:32;14.40;99.90
23550;DHT22;11953;49.010;8.608;2022-10-14T01:30:24;14.40;99.90
23550;DHT22;11953;49.010;8.608;2022-10-14T01:33:14;14.40;99.90
23550;DHT22;11953;49.010;8.608;2022-10-14T01:36:05;14.30;99.90
23550;DHT22;11953;49.010;8.608;2022-10-14T01:38:57;14.20;99.90
23550;DHT22;11953;49.010;8.608;2022-10-14T01:41:50;14.20;99.90
23550;DHT22;11953;49.010;8.608;2022-10-14T01:44:42;14.10;99.90
23550;DHT22;11953;49.010;8.608;2022-10-14T01:47:33;14.10;99.90
23550;DHT22;11953;49.010;8.608;2022-10-14T01:50:23;14.00;99.90
23550;DHT22;11953;49.010;8.608;2022-10-14T01:53:13;13.80;99.90
23550;DHT22;11953;49.010;8.608;2022-10-14T01:56:03;13.80;99.90
23550;DHT22;11953;49.010;8.608;2022-10-14T01:58:51;13.60;99.90
23550;DHT22;11953;49.010;8.608;2022-10-14T02:01:38;13.50;99.90
23550;DHT22;11953;49.010;8.608;2022-10-14T02:04:26;13.50;99.90
23550;DHT22;11953;49.010;8.608;2022-10-14T02:07:16;13.40;99.90
23550;DHT22;11953;49.010;8.608;2022-10-14T02:10:15;13.40;99.90
23550;DHT22;11953;49.010;8.608;2022-10-14T02:13:20;13.50;99.90
23550;DHT22;11953;49.010;8.608;2022-10-14T02:16:18;13.40;99.90
23550;DHT22;11953;49.010;8.608;2022-10-14T02:19:16;13.50;99.90
23550;DHT22;11953;49.010;8.608;2022-10-14T02:22:12;13.50;99.90
23550;DHT22;11953;49.010;8.608;2022-10-14T02:25:06;13.50;99.90
23550;DHT22;11953;49.010;8.608;2022-10-14T02:27:55;13.50;99.90
23550;DHT22;11953;49.010;8.608;2022-10-14T02:30:46;13.60;99.90
23550;DHT22;11953;49.010;8.608;2022-10-14T02:33:38;13.80;99.90
23550;DHT22;11953;49.010;8.608;2022-10-14T02:36:26;13.90;99.90
23550;DHT22;11953;49.010;8.608;2022-10-14T02:39:19;14.00;99.90
23550;DHT22;11953;49.010;8.608;2022-10-14T02:42:07;14.10;99.90
23550;DHT22;11953;49.010;8.608;2022-10-14T02:44:54;14.00;99.90
23550;DHT22;11953;49.010;8.608;2022-10-14T02:47:41;14.00;99.90
23550;DHT22;11953;49.010;8.608;2022-10-14T02:50:27;13.90;99.90
23550;DHT22;11953;49.010;8.608;2022-10-14T02:53:15;13.90;99.90
23550;DHT22;11953;49.010;8.608;2022-10-14T02:56:05;13.90;99.90
23550;DHT22;11953;49.010;8.608;2022-10-14T02:58:52;14.10;99.90
23550;DHT22;11953;49.010;8.608;2022-10-14T03:01:40;13.90;99.90
23550;DHT22;11953;49.010;8.608;2022-10-14T03:04:28;13.90;99.90
23550;DHT22;11953;49.010;8.608;2022-10-14T03:07:15;14.00;99.90
23550;DHT22;11953;49.010;8.608;2022-10-14T03:10:06;14.00;99.90
23550;DHT22;11953;49.010;8.608;2022-10-14T03:12:55;14.10;99.90
23550;DHT22;11953;49.010;8.608;2022-10-14T03:15:51;14.10;99.90
23550;DHT22;11953;49.010;8.608;2022-10-14T03:18:38;14.00;99.90
23550;DHT22;11953;49.010;8.608;2022-10-14T03:21:35;14.00;99.90
23550;DHT22;11953;49.010;8.608;2022-10-14T03:24:29;14.00;99.90
23550;DHT22;11953;49.010;8.608;2022-10-14T03:27:36;14.00;99.90
23550;DHT22;11953;49.010;8.608;2022-10-14T03:30:29;14.00;99.90
23550;DHT22;11953;49.010;8.608;2022-10-14T03:33:22;14.00;99.90
23550;DHT22;11953;49.010;8.608;2022-10-14T03:36:24;14.00;99.90
23550;DHT22;11953;49.010;8.608;2022-10-14T03:39:13;13.80;99.90
23550;DHT22;11953;49.010;8.608;2022-10-14T03:42:07;13.80;99.90
23550;DHT22;11953;49.010;8.608;2022-10-14T03:45:00;13.70;99.90
23550;DHT22;11953;49.010;8.608;2022-10-14T03:47:50;13.70;99.90
23550;DHT22;11953;49.010;8.608;2022-10-14T03:50:38;13.80;99.90
23550;DHT22;11953;49.010;8.608;2022-10-14T03:53:26;13.80;99.90
23550;DHT22;11953;49.010;8.608;2022-10-14T03:56:13;13.80;99.90
23550;DHT22;11953;49.010;8.608;2022-10-14T03:59:02;13.80;99.90
23550;DHT22;11953;49.010;8.608;2022-10-14T04:01:49;13.80;99.90
23550;DHT22;11953;49.010;8.608;2022-10-14T04:04:41;13.80;99.90
23550;DHT22;11953;49.010;8.608;2022-10-14T04:07:29;13.80;99.90
23550;DHT22;11953;49.010;8.608;2022-10-14T04:10:16;13.80;99.90
23550;DHT22;11953;49.010;8.608;2022-10-14T04:13:08;13.70;99.90
23550;DHT22;11953;49.010;8.608;2022-10-14T04:16:01;13.70;99.90
23550;DHT22;11953;49.010;8.608;2022-10-14T04:18:54;13.70;99.90
23550;DHT22;11953;49.010;8.608;2022-10-14T04:21:44;13.70;99.90
23550;DHT22;11953;49.010;8.608;2022-10-14T04:24:34;13.70;99.90
23550;DHT22;11953;49.010;8.608;2022-10-14T04:27:21;13.80;99.90
23550;DHT22;11953;49.010;8.608;2022-10-14T04:30:17;13.80;99.90
23550;DHT22;11953;49.010;8.608;2022-10-14T04:33:09;13.80;99.90
23550;DHT22;11953;49.010;8.608;2022-10-14T04:35:57;13.60;99.90
23550;DHT22;11953;49.010;8.608;2022-10-14T04:38:50;13.70;99.90
23550;DHT22;11953;49.010;8.608;2022-10-14T04:41:37;13.70;99.90
23550;DHT22;11953;49.010;8.608;2022-10-14T04:44:24;13.80;99.90
23550;DHT22;11953;49.010;8.608;2022-10-14T04:47:12;13.80;99.90
23550;DHT22;11953;49.010;8.608;2022-10-14T04:49:59;13.80;99.90
23550;DHT22;11953;49.010;8.608;2022-10-14T04:52:48;13.80;99.90
23550;DHT22;11953;49.010;8.608;2022-10-14T04:55:37;13.80;99.90
23550;DHT22;11953;49.010;8.608;2022-10-14T04:58:23;13.90;99.90
23550;DHT22;11953;49.010;8.608;2022-10-14T05:01:11;13.90;99.90
23550;DHT22;11953;49.010;8.608;2022-10-14T05:03:59;13.90;99.90
23550;DHT22;11953;49.010;8.608;2022-10-14T05:06:51;13.90;99.90
23550;DHT22;11953;49.010;8.608;2022-10-14T05:09:38;13.80;99.90
23550;DHT22;11953;49.010;8.608;2022-10-14T05:12:39;13.70;99.90
23550;DHT22;11953;49.010;8.608;2022-10-14T05:15:26;13.70;99.90
23550;DHT22;11953;49.010;8.608;2022-10-14T05:18:22;13.70;99.90
23550;DHT22;11953;49.010;8.608;2022-10-14T05:21:16;13.80;99.90
23550;DHT22;11953;49.010;8.608;2022-10-14T05:24:12;13.80;99.90
23550;DHT22;11953;49.010;8.608;2022-10-14T05:27:01;13.80;99.90
23550;DHT22;11953;49.010;8.608;2022-10-14T05:29:50;13.90;99.90
23550;DHT22;11953;49.010;8.608;2022-10-14T05:32:37;13.80;99.90
23550;DHT22;11953;49.010;8.608;2022-10-14T05:35:27;13.80;99.90
23550;DHT22;11953;49.010;8.608;2022-10-14T05:38:34;13.60;99.90
23550;DHT22;11953;49.010;8.608;2022-10-14T05:41:21;13.50;99.90
23550;DHT22;11953;49.010;8.608;2022-10-14T05:44:09;13.40;99.90
23550;DHT22;11953;49.010;8.608;2022-10-14T05:46:58;13.30;99.90
23550;DHT22;11953;49.010;8.608;2022-10-14T05:49:45;13.20;99.90
23550;DHT22;11953;49.010;8.608;2022-10-14T05:52:32;13.20;99.90
23550;DHT22;11953;49.010;8.608;2022-10-14T05:55:28;13.30;99.90
23550;DHT22;11953;49.010;8.608;2022-10-14T05:58:19;13.20;99.90
23550;DHT22;11953;49.010;8.608;2022-10-14T06:01:07;13.30;99.90
23550;DHT22;11953;49.010;8.608;2022-10-14T06:03:58;13.40;99.90
23550;DHT22;11953;49.010;8.608;2022-10-14T06:06:45;13.50;99.90
23550;DHT22;11953;49.010;8.608;2022-10-14T06:09:33;13.50;99.90
23550;DHT22;11953;49.010;8.608;2022-10-14T06:12:19;13.50;99.90
23550;DHT22;11953;49.010;8.608;2022-10-14T06:15:07;13.50;99.90
23550;DHT22;11953;49.010;8.608;2022-10-14T06:17:54;13.60;99.90
23550;DHT22;11953;49.010;8.608;2022-10-14T06:20:50;13.60;99.90
23550;DHT22;11953;49.010;8.608;2022-10-14T06:23:37;13.70;99.90
23550;DHT22;11953;49.010;8.608;2022-10-14T06:26:23;13.80;99.90
23550;DHT22;11953;49.010;8.608;2022-10-14T06:29:10;13.90;99.90
23550;DHT22;11953;49.010;8.608;2022-10-14T06:31:56;13.90;99.90
23550;DHT22;11953;49.010;8.608;2022-10-14T06:34:43;14.00;99.90
23550;DHT22;11953;49.010;8.608;2022-10-14T06:37:31;14.10;99.90
23550;DHT22;11953;49.010;8.608;2022-10-14T06:40:17;14.10;99.90
23550;DHT22;11953;49.010;8.608;2022-10-14T06:43:04;14.20;99.90
23550;DHT22;11953;49.010;8.608;2022-10-14T06:45:50;14.20;99.90
23550;DHT22;11953;49.010;8.608;2022-10-14T06:48:37;14.30;99.90
23550;DHT22;11953;49.010;8.608;2022-10-14T06:51:23;14.40;99.90
23550;DHT22;11953;49.010;8.608;2022-10-14T06:54:11;14.40;99.90
23550;DHT22;11953;49.010;8.608;2022-10-14T06:56:58;14.40;99.90
23550;DHT22;11953;49.010;8.608;2022-10-14T06:59:45;14.40;99.90
23550;DHT22;11953;49.010;8.608;2022-10-14T07:02:31;14.50;99.90
23550;DHT22;11953;49.010;8.608;2022-10-14T07:05:18;14.60;99.90
23550;DHT22;11953;49.010;8.608;2022-10-14T07:08:05;14.70;99.90
23550;DHT22;11953;49.010;8.608;2022-10-14T07:10:57;14.80;99.90
23550;DHT22;11953;49.010;8.608;2022-10-14T07:13:43;14.90;99.90
23550;DHT22;11953;49.010;8.608;2022-10-14T07:16:30;15.00;99.90
23550;DHT22;11953;49.010;8.608;2022-10-14T07:19:17;15.20;99.90
23550;DHT22;11953;49.010;8.608;2022-10-14T07:22:04;15.20;99.90
23550;DHT22;11953;49.010;8.608;2022-10-14T07:24:50;15.30;99.90
23550;DHT22;11953;49.010;8.608;2022-10-14T07:27:38;15.40;99.90
23550;DHT22;11953;49.010;8.608;2022-10-14T07:30:24;15.40;99.90
23550;DHT22;11953;49.010;8.608;2022-10-14T07:33:11;15.10;99.90
23550;DHT22;11953;49.010;8.608;2022-10-14T07:36:00;15.20;99.90
23550;DHT22;11953;49.010;8.608;2022-10-14T07:38:47;15.20;99.90
23550;DHT22;11953;49.010;8.608;2022-10-14T07:41:33;15.30;99.90
23550;DHT22;11953;49.010;8.608;2022-10-14T07:44:21;15.30;99.90
23550;DHT22;11953;49.010;8.608;2022-10-14T07:47:12;15.40;99.90
23550;DHT22;11953;49.010;8.608;2022-10-14T07:49:59;15.50;99.90
23550;DHT22;11953;49.010;8.608;2022-10-14T07:52:45;15.50;99.90
23550;DHT22;11953;49.010;8.608;2022-10-14T07:55:32;15.60;99.90
23550;DHT22;11953;49.010;8.608;2022-10-14T07:58:19;15.50;99.90
23550;DHT22;11953;49.010;8.608;2022-10-14T08:01:07;15.30;99.90
23550;DHT22;11953;49.010;8.608;2022-10-14T08:03:54;15.20;99.90
23550;DHT22;11953;49.010;8.608;2022-10-14T08:06:40;15.20;99.90
23550;DHT22;11953;49.010;8.608;2022-10-14T08:09:27;15.30;99.90
23550;DHT22;11953;49.010;8.608;2022-10-14T08:12:14;15.40;99.90
23550;DHT22;11953;49.010;8.608;2022-10-14T08:15:01;15.40;99.90
23550;DHT22;11953;49.010;8.608;2022-10-14T08:17:49;15.60;99.90
23550;DHT22;11953;49.010;8.608;2022-10-14T08:20:35;15.70;99.90
23550;DHT22;11953;49.010;8.608;2022-10-14T08:23:22;15.90;99.90
23550;DHT22;11953;49.010;8.608;2022-10-14T08:26:18;15.80;99.90
23550;DHT22;11953;49.010;8.608;2022-10-14T08:29:08;15.80;99.90
23550;DHT22;11953;49.010;8.608;2022-10-14T08:31:55;15.80;99.90
23550;DHT22;11953;49.010;8.608;2022-10-14T08:34:43;15.90;99.90
23550;DHT22;11953;49.010;8.608;2022-10-14T08:37:29;16.00;99.90
23550;DHT22;11953;49.010;8.608;2022-10-14T08:40:16;16.00;99.90
23550;DHT22;11953;49.010;8.608;2022-10-14T08:43:06;16.10;99.90
23550;DHT22;11953;49.010;8.608;2022-10-14T08:45:56;16.20;99.90
23550;DHT22;11953;49.010;8.608;2022-10-14T08:48:44;16.10;99.90
23550;DHT22;11953;49.010;8.608;2022-10-14T08:51:33;16.10;99.90
23550;DHT22;11953;49.010;8.608;2022-10-14T08:54:29;16.30;99.90
23550;DHT22;11953;49.010;8.608;2022-10-14T08:57:18;16.40;99.90
23550;DHT22;11953;49.010;8.608;2022-10-14T09:00:08;16.40;99.90
23550;DHT22;11953;49.010;8.608;2022-10-14T09:02:55;16.50;99.90
23550;DHT22;11953;49.010;8.608;2022-10-14T09:05:47;16.60;99.90
23550;DHT22;11953;49.010;8.608;2022-10-14T09:08:41;16.60;99.90
23550;DHT22;11953;49.010;8.608;2022-10-14T09:11:31;16.60;99.90
23550;DHT22;11953;49.010;8.608;2022-10-14T09:14:22;16.70;99.90
23550;DHT22;11953;49.010;8.608;2022-10-14T09:17:13;16.80;99.90
23550;DHT22;11953;49.010;8.608;2022-10-14T09:20:03;16.70;99.90
23550;DHT22;11953;49.010;8.608;2022-10-14T09:22:58;16.70;99.90
23550;DHT22;11953;49.010;8.608;2022-10-14T09:25:54;16.80;99.90
23550;DHT22;11953;49.010;8.608;2022-10-14T09:28:41;16.80;99.90
23550;DHT22;11953;49.010;8.608;2022-10-14T09:31:29;16.90;99.90
23550;DHT22;11953;49.010;8.608;2022-10-14T09:34:27;16.90;99.90
23550;DHT22;11953;49.010;8.608;2022-10-14T09:37:25;17.00;99.90
23550;DHT22;11953;49.010;8.608;2022-10-14T09:40:17;17.10;99.90
23550;DHT22;11953;49.010;8.608;2022-10-14T09:43:13;17.20;99.90
23550;DHT22;11953;49.010;8.608;2022-10-14T09:46:02;17.20;99.90
23550;DHT22;11953;49.010;8.608;2022-10-14T09:48:52;17.20;99.90
23550;DHT22;11953;49.010;8.608;2022-10-14T09:51:41;17.30;99.90
23550;DHT22;11953;49.010;8.608;2022-10-14T09:54:30;17.30;99.90
23550;DHT22;11953;49.010;8.608;2022-10-14T09:57:18;17.30;99.90
23550;DHT22;11953;49.010;8.608;2022-10-14T10:00:24;17.30;99.90
23550;DHT22;11953;49.010;8.608;2022-10-14T10:03:24;17.30;99.90
23550;DHT22;11953;49.010;8.608;2022-10-14T10:06:12;17.30;99.90
23550;DHT22;11953;49.010;8.608;2022-10-14T10:08:59;17.30;99.90
23550;DHT22;11953;49.010;8.608;2022-10-14T10:11:46;17.30;99.90
23550;DHT22;11953;49.010;8.608;2022-10-14T10:14:33;17.30;99.90
23550;DHT22;11953;49.010;8.608;2022-10-14T10:17:21;17.40;99.90
23550;DHT22;11953;49.010;8.608;2022-10-14T10:20:19;17.40;99.90
23550;DHT22;11953;49.010;8.608;2022-10-14T10:23:22;17.40;99.90
23550;DHT22;11953;49.010;8.608;2022-10-14T10:26:15;17.50;99.90
23550;DHT22;11953;49.010;8.608;2022-10-14T10:29:04;17.40;99.90
23550;DHT22;11953;49.010;8.608;2022-10-14T10:31:58;17.30;99.90
23550;DHT22;11953;49.010;8.608;2022-10-14T10:35:15;17.10;99.90
23550;DHT22;11953;49.010;8.608;2022-10-14T10:38:10;17.00;99.90
23550;DHT22;11953;49.010;8.608;2022-10-14T10:41:16;17.00;99.90
23550;DHT22;11953;49.010;8.608;2022-10-14T10:44:15;16.90;99.90
23550;DHT22;11953;49.010;8.608;2022-10-14T10:47:15;16.90;99.90
23550;DHT22;11953;49.010;8.608;2022-10-14T10:50:24;17.00;99.90
23550;DHT22;11953;49.010;8.608;2022-10-14T10:53:40;17.00;99.90
23550;DHT22;11953;49.010;8.608;2022-10-14T10:56:32;16.90;99.90
23550;DHT22;11953;49.010;8.608;2022-10-14T10:59:31;16.60;99.90
23550;DHT22;11953;49.010;8.608;2022-10-14T11:02:46;16.50;99.90
23550;DHT22;11953;49.010;8.608;2022-10-14T11:05:48;16.60;99.90
23550;DHT22;11953;49.010;8.608;2022-10-14T11:08:58;16.50;99.90
23550;DHT22;11953;49.010;8.608;2022-10-14T11:12:09;16.60;99.90
23550;DHT22;11953;49.010;8.608;2022-10-14T11:15:18;16.70;99.90
23550;DHT22;11953;49.010;8.608;2022-10-14T11:18:10;16.60;99.90
23550;DHT22;11953;49.010;8.608;2022-10-14T11:21:09;16.50;99.90
23550;DHT22;11953;49.010;8.608;2022-10-14T11:24:05;16.40;99.90
23550;DHT22;11953;49.010;8.608;2022-10-14T11:27:01;16.30;99.90
23550;DHT22;11953;49.010;8.608;2022-10-14T11:30:09;16.20;99.90
23550;DHT22;11953;49.010;8.608;2022-10-14T11:33:09;16.20;99.90
23550;DHT22;11953;49.010;8.608;2022-10-14T11:36:06;16.20;99.90
23550;DHT22;11953;49.010;8.608;2022-10-14T11:39:13;16.20;99.90
23550;DHT22;11953;49.010;8.608;2022-10-14T11:42:14;16.50;99.90
23550;DHT22;11953;49.010;8.608;2022-10-14T11:45:12;16.40;99.90
23550;DHT22;11953;49.010;8.608;2022-10-14T11:48:22;16.40;99.90
23550;DHT22;11953;49.010;8.608;2022-10-14T11:51:16;16.50;99.90
23550;DHT22;11953;49.010;8.608;2022-10-14T11:54:08;16.60;99.90
23550;DHT22;11953;49.010;8.608;2022-10-14T11:57:00;16.60;99.90
23550;DHT22;11953;49.010;8.608;2022-10-14T12:03:54;16.50;99.90
23550;DHT22;11953;49.010;8.608;2022-10-14T12:06:47;16.60;99.90
23550;DHT22;11953;49.010;8.608;2022-10-14T12:09:38;16.70;99.90
23550;DHT22;11953;49.010;8.608;2022-10-14T12:12:28;16.80;99.90
23550;DHT22;11953;49.010;8.608;2022-10-14T12:15:18;16.70;99.90
23550;DHT22;11953;49.010;8.608;2022-10-14T12:18:06;16.80;99.90
23550;DHT22;11953;49.010;8.608;2022-10-14T12:20:56;16.90;99.90
23550;DHT22;11953;49.010;8.608;2022-10-14T12:23:48;17.10;99.90
23550;DHT22;11953;49.010;8.608;2022-10-14T12:26:46;17.20;99.90
23550;DHT22;11953;49.010;8.608;2022-10-14T12:29:36;17.30;99.90
23550;DHT22;11953;49.010;8.608;2022-10-14T12:32:24;17.30;99.90
23550;DHT22;11953;49.010;8.608;2022-10-14T12:35:53;17.30;99.90
23550;DHT22;11953;49.010;8.608;2022-10-14T12:39:26;17.50;99.90
23550;DHT22;11953;49.010;8.608;2022-10-14T12:42:15;17.50;99.90
23550;DHT22;11953;49.010;8.608;2022-10-14T12:45:03;17.60;99.90
23550;DHT22;11953;49.010;8.608;2022-10-14T12:48:06;17.70;99.90
23550;DHT22;11953;49.010;8.608;2022-10-14T12:51:07;17.90;99.90
23550;DHT22;11953;49.010;8.608;2022-10-14T12:54:04;17.90;99.90
23550;DHT22;11953;49.010;8.608;2022-10-14T12:56:55;18.10;99.90
23550;DHT22;11953;49.010;8.608;2022-10-14T12:59:48;18.20;99.90
23550;DHT22;11953;49.010;8.608;2022-10-14T13:02:37;18.10;99.90
23550;DHT22;11953;49.010;8.608;2022-10-14T13:05:32;18.10;99.90
23550;DHT22;11953;49.010;8.608;2022-10-14T13:08:27;17.90;99.90
23550;DHT22;11953;49.010;8.608;2022-10-14T13:11:13;17.90;99.90
23550;DHT22;11953;49.010;8.608;2022-10-14T13:14:20;17.90;99.90
23550;DHT22;11953;49.010;8.608;2022-10-14T13:17:27;18.00;99.90
23550;DHT22;11953;49.010;8.608;2022-10-14T13:20:50;18.10;99.90
23550;DHT22;11953;49.010;8.608;2022-10-14T13:23:40;18.20;99.90
23550;DHT22;11953;49.010;8.608;2022-10-14T13:26:37;18.30;99.90
23550;DHT22;11953;49.010;8.608;2022-10-14T13:29:51;18.40;99.90
23550;DHT22;11953;49.010;8.608;2022-10-14T13:32:44;18.30;99.90
23550;DHT22;11953;49.010;8.608;2022-10-14T13:35:41;18.30;99.90
23550;DHT22;11953;49.010;8.608;2022-10-14T13:38:32;18.20;99.90
23550;DHT22;11953;49.010;8.608;2022-10-14T13:41:20;18.10;99.90
23550;DHT22;11953;49.010;8.608;2022-10-14T13:44:17;18.00;99.90
23550;DHT22;11953;49.010;8.608;2022-10-14T13:47:10;17.80;99.90
23550;DHT22;11953;49.010;8.608;2022-10-14T13:49:58;17.80;99.90
23550;DHT22;11953;49.010;8.608;2022-10-14T13:52:49;17.80;99.90
23550;DHT22;11953;49.010;8.608;2022-10-14T13:55:42;17.60;99.90
23550;DHT22;11953;49.010;8.608;2022-10-14T13:58:32;17.40;99.90
23550;DHT22;11953;49.010;8.608;2022-10-14T14:01:21;17.30;99.90
23550;DHT22;11953;49.010;8.608;2022-10-14T14:04:18;17.20;99.90
23550;DHT22;11953;49.010;8.608;2022-10-14T14:07:12;17.10;99.90
23550;DHT22;11953;49.010;8.608;2022-10-14T14:10:21;17.10;99.90
23550;DHT22;11953;49.010;8.608;2022-10-14T14:13:10;17.10;99.90
23550;DHT22;11953;49.010;8.608;2022-10-14T14:15:58;17.00;99.90
23550;DHT22;11953;49.010;8.608;2022-10-14T14:18:46;17.10;99.90
23550;DHT22;11953;49.010;8.608;2022-10-14T14:22:05;17.10;99.90
23550;DHT22;11953;49.010;8.608;2022-10-14T14:25:08;17.10;99.90
23550;DHT22;11953;49.010;8.608;2022-10-14T14:28:17;17.00;99.90
23550;DHT22;11953;49.010;8.608;2022-10-14T14:31:04;17.00;99.90
23550;DHT22;11953;49.010;8.608;2022-10-14T14:33:56;17.10;99.90
23550;DHT22;11953;49.010;8.608;2022-10-14T14:36:44;17.10;99.90
23550;DHT22;11953;49.010;8.608;2022-10-14T14:39:40;17.10;99.90
23550;DHT22;11953;49.010;8.608;2022-10-14T14:42:30;17.20;99.90
23550;DHT22;11953;49.010;8.608;2022-10-14T14:45:22;17.30;99.90
23550;DHT22;11953;49.010;8.608;2022-10-14T14:48:11;17.20;99.90
23550;DHT22;11953;49.010;8.608;2022-10-14T14:50:59;17.20;99.90
23550;DHT22;11953;49.010;8.608;2022-10-14T14:53:48;17.30;99.90
23550;DHT22;11953;49.010;8.608;2022-10-14T14:56:40;17.30;99.90
23550;DHT22;11953;49.010;8.608;2022-10-14T14:59:31;17.40;99.90
23550;DHT22;11953;49.010;8.608;2022-10-14T15:02:21;17.40;99.90
23550;DHT22;11953;49.010;8.608;2022-10-14T15:05:10;17.40;99.90
23550;DHT22;11953;49.010;8.608;2022-10-14T15:07:57;17.20;99.90
23550;DHT22;11953;49.010;8.608;2022-10-14T15:10:46;17.20;99.90
23550;DHT22;11953;49.010;8.608;2022-10-14T15:13:47;17.10;99.90
23550;DHT22;11953;49.010;8.608;2022-10-14T15:16:36;17.10;99.90
23550;DHT22;11953;49.010;8.608;2022-10-14T15:19:33;17.10;99.90
23550;DHT22;11953;49.010;8.608;2022-10-14T15:22:33;17.10;99.90
23550;DHT22;11953;49.010;8.608;2022-10-14T15:25:27;17.10;99.90
23550;DHT22;11953;49.010;8.608;2022-10-14T15:28:28;17.10;99.90
23550;DHT22;11953;49.010;8.608;2022-10-14T15:31:18;17.10;99.90
23550;DHT22;11953;49.010;8.608;2022-10-14T15:34:08;17.00;99.90
23550;DHT22;11953;49.010;8.608;2022-10-14T15:36:57;17.00;99.90
23550;DHT22;11953;49.010;8.608;2022-10-14T15:39:43;17.00;99.90
23550;DHT22;11953;49.010;8.608;2022-10-14T15:42:31;16.90;99.90
23550;DHT22;11953;49.010;8.608;2022-10-14T15:45:18;17.00;99.90
23550;DHT22;11953;49.010;8.608;2022-10-14T15:48:06;16.90;99.90
23550;DHT22;11953;49.010;8.608;2022-10-14T15:50:52;16.90;99.90
23550;DHT22;11953;49.010;8.608;2022-10-14T15:53:39;16.90;99.90
23550;DHT22;11953;49.010;8.608;2022-10-14T15:56:25;16.90;99.90
23550;DHT22;11953;49.010;8.608;2022-10-14T15:59:12;16.80;99.90
23550;DHT22;11953;49.010;8.608;2022-10-14T16:02:00;16.80;99.90
23550;DHT22;11953;49.010;8.608;2022-10-14T16:04:50;16.80;99.90
23550;DHT22;11953;49.010;8.608;2022-10-14T16:07:58;16.70;99.90
23550;DHT22;11953;49.010;8.608;2022-10-14T16:10:44;16.70;99.90
23550;DHT22;11953;49.010;8.608;2022-10-14T16:13:32;16.60;99.90
23550;DHT22;11953;49.010;8.608;2022-10-14T16:16:22;16.60;99.90
23550;DHT22;11953;49.010;8.608;2022-10-14T16:19:09;16.60;99.90
23550;DHT22;11953;49.010;8.608;2022-10-14T16:21:57;16.50;99.90
23550;DHT22;11953;49.010;8.608;2022-10-14T16:24:44;16.40;99.90
23550;DHT22;11953;49.010;8.608;2022-10-14T16:27:30;16.40;99.90
23550;DHT22;11953;49.010;8.608;2022-10-14T16:30:17;16.40;99.90
23550;DHT22;11953;49.010;8.608;2022-10-14T16:33:04;16.40;99.90
23550;DHT22;11953;49.010;8.608;2022-10-14T16:35:53;16.50;99.90
23550;DHT22;11953;49.010;8.608;2022-10-14T16:38:41;16.50;99.90
23550;DHT22;11953;49.010;8.608;2022-10-14T16:41:28;16.50;99.90
23550;DHT22;11953;49.010;8.608;2022-10-14T16:44:15;16.40;99.90
23550;DHT22;11953;49.010;8.608;2022-10-14T16:47:11;16.40;99.90
23550;DHT22;11953;49.010;8.608;2022-10-14T16:50:06;16.30;99.90
23550;DHT22;11953;49.010;8.608;2022-10-14T16:52:53;16.40;99.90
23550;DHT22;11953;49.010;8.608;2022-10-14T16:55:59;16.40;99.90
23550;DHT22;11953;49.010;8.608;2022-10-14T16:58:45;16.30;99.90
23550;DHT22;11953;49.010;8.608;2022-10-14T17:01:32;16.40;99.90
23550;DHT22;11953;49.010;8.608;2022-10-14T17:04:20;16.40;99.90
23550;DHT22;11953;49.010;8.608;2022-10-14T17:07:15;16.30;99.90
23550;DHT22;11953;49.010;8.608;2022-10-14T17:10:01;16.40;99.90
23550;DHT22;11953;49.010;8.608;2022-10-14T17:12:49;16.40;99.90
23550;DHT22;11953;49.010;8.608;2022-10-14T17:15:37;16.40;99.90
23550;DHT22;11953;49.010;8.608;2022-10-14T17:18:24;16.40;99.90
23550;DHT22;11953;49.010;8.608;2022-10-14T17:21:14;16.40;99.90
23550;DHT22;11953;49.010;8.608;2022-10-14T17:24:01;16.30;99.90
23550;DHT22;11953;49.010;8.608;2022-10-14T17:26:47;16.30;99.90
23550;DHT22;11953;49.010;8.608;2022-10-14T17:29:35;16.40;99.90
23550;DHT22;11953;49.010;8.608;2022-10-14T17:32:22;16.30;99.90
23550;DHT22;11953;49.010;8.608;2022-10-14T17:35:09;16.10;99.90
23550;DHT22;11953;49.010;8.608;2022-10-14T17:37:59;16.10;99.90
23550;DHT22;11953;49.010;8.608;2022-10-14T17:40:46;16.00;99.90
23550;DHT22;11953;49.010;8.608;2022-10-14T17:43:33;16.00;99.90
23550;DHT22;11953;49.010;8.608;2022-10-14T17:46:22;15.90;99.90
23550;DHT22;11953;49.010;8.608;2022-10-14T17:49:09;15.90;99.90
23550;DHT22;11953;49.010;8.608;2022-10-14T17:51:56;15.80;99.90
23550;DHT22;11953;49.010;8.608;2022-10-14T17:54:46;15.90;99.90
23550;DHT22;11953;49.010;8.608;2022-10-14T17:57:32;15.80;99.90
23550;DHT22;11953;49.010;8.608;2022-10-14T18:00:20;15.90;99.90
23550;DHT22;11953;49.010;8.608;2022-10-14T18:03:08;15.90;99.90
23550;DHT22;11953;49.010;8.608;2022-10-14T18:05:54;15.90;99.90
23550;DHT22;11953;49.010;8.608;2022-10-14T18:08:43;15.90;99.90